Time;durP1;ratioP1;P1;durP2;ratioP2;P2;SDS_P1;SDS_P2;PMS_P1;PMS_P2;Temp;Humidity;BMP_temperature;BMP_pressure;BME280_temperature;BME280_humidity;BME280_pressure;Samples;Min_cycle;Max_cycle;Signal;HPM_P1;HPM_P2
2022/07/05 00:01:03;;;;;;;11.30;7.10;;;;;;;24.33;48.11;99377.34;25092;1313;3027039;-66
2022/07/05 00:03:32;;;;;;;12.20;7.40;;;;;;;24.31;48.15;99377.69;25041;1313;3055560;-65
2022/07/05 00:06:02;;;;;;;13.30;8.10;;;;;;;24.26;48.46;99378.63;25049;1315;3026240;-69
2022/07/05 00:08:31;;;;;;;13.20;7.20;;;;;;;24.26;48.51;99375.84;25090;1315;3026489;-65
2022/07/05 00:11:00;;;;;;;12.50;7.40;;;;;;;24.26;48.55;99373.86;25069;1314;3025982;-63
2022/07/05 00:13:29;;;;;;;13.40;6.60;;;;;;;24.23;48.78;99374.05;25075;1316;3058070;-63
2022/07/05 00:16:00;;;;;;;9.80;6.10;;;;;;;24.22;48.97;99375.58;25092;1315;3026597;-67
2022/07/05 00:18:29;;;;;;;9.90;5.60;;;;;;;24.22;48.64;99375.95;25118;1316;3026883;-67
2022/07/05 00:20:58;;;;;;;12.00;6.40;;;;;;;24.25;48.58;99365.55;25043;1316;3058101;-64
2022/07/05 00:23:27;;;;;;;10.80;6.50;;;;;;;24.27;48.45;99367.42;25024;1316;3027524;-67
2022/07/05 00:25:58;;;;;;;11.00;5.90;;;;;;;24.27;48.55;99370.08;25037;1316;3026852;-66
2022/07/05 00:28:27;;;;;;;12.40;7.00;;;;;;;24.27;48.60;99371.27;25106;1316;3030041;-69
2022/07/05 00:30:56;;;;;;;10.00;6.50;;;;;;;24.23;48.61;99370.60;25046;1316;3051373;-66
2022/07/05 00:33:25;;;;;;;8.40;5.50;;;;;;;24.22;48.70;99370.95;25050;1315;3026796;-68
2022/07/05 00:35:54;;;;;;;11.10;5.60;;;;;;;24.19;48.79;99367.52;25079;1316;3026432;-68
2022/07/05 00:38:24;;;;;;;8.40;6.50;;;;;;;24.19;48.81;99368.05;25073;1316;3051376;-64
2022/07/05 00:40:54;;;;;;;11.30;6.50;;;;;;;24.16;48.99;99366.28;25043;1316;3026482;-63
2022/07/05 00:43:23;;;;;;;7.20;6.00;;;;;;;24.14;49.14;99370.83;25102;1316;3026497;-61
2022/07/05 00:45:52;;;;;;;12.10;7.00;;;;;;;24.11;49.27;99371.12;25105;1315;3049489;-67
2022/07/05 00:48:21;;;;;;;17.40;9.80;;;;;;;24.07;49.65;99368.60;25057;1316;3026576;-68
2022/07/05 00:50:51;;;;;;;19.90;11.20;;;;;;;24.02;49.80;99368.23;25106;1316;3058294;-63
2022/07/05 00:53:20;;;;;;;22.00;10.80;;;;;;;23.98;49.99;99368.23;25024;1316;3026616;-63
2022/07/05 00:55:49;;;;;;;16.20;9.10;;;;;;;23.94;50.05;99369.17;25051;1316;3026527;-62
2022/07/05 00:58:18;;;;;;;15.10;7.80;;;;;;;23.92;50.08;99372.31;25019;1316;3026739;-66
2022/07/05 01:02:12;;;;;;;14.90;9.80;;;;;;;24.00;50.28;99371.54;31603;1319;3026621;-62
2022/07/05 01:04:42;;;;;;;15.80;9.00;;;;;;;24.09;50.01;99375.38;24916;1319;3026515;-63
2022/07/05 01:07:11;;;;;;;15.80;8.70;;;;;;;24.17;49.70;99373.51;24996;1321;3026448;-61
2022/07/05 01:09:40;;;;;;;13.60;7.70;;;;;;;24.03;50.01;99374.09;24896;1319;3048094;-65
2022/07/05 01:12:10;;;;;;;14.50;8.40;;;;;;;23.98;49.72;99369.08;24954;1319;3027442;-66
2022/07/05 01:14:40;;;;;;;13.30;8.00;;;;;;;23.97;49.71;99374.13;24914;1322;3026109;-66
2022/07/05 01:17:10;;;;;;;19.40;8.30;;;;;;;23.93;49.96;99372.70;25085;1313;3055412;-66
2022/07/05 01:19:39;;;;;;;14.20;7.30;;;;;;;23.89;50.17;99375.99;25101;1316;3026343;-65
2022/07/05 01:22:18;;;;;;;11.80;7.60;;;;;;;23.88;50.06;99371.20;25007;1316;3054632;-64
2022/07/05 01:24:49;;;;;;;12.90;8.00;;;;;;;23.86;50.21;99366.75;25109;1315;3057426;-66
2022/07/05 01:27:21;;;;;;;12.10;7.50;;;;;;;23.84;50.16;99371.30;25069;1313;3026199;-65
2022/07/05 01:29:50;;;;;;;12.00;7.70;;;;;;;23.81;50.32;99371.79;25070;1315;3028766;-63
2022/07/05 01:32:19;;;;;;;10.20;6.80;;;;;;;23.79;50.24;99375.55;25172;1316;3026766;-65
2022/07/05 01:34:48;;;;;;;13.20;6.90;;;;;;;23.77;50.34;99377.08;25053;1313;3051033;-63
2022/07/05 01:37:17;;;;;;;8.10;6.80;;;;;;;23.75;50.59;99377.73;25139;1313;3026284;-62
2022/07/05 01:39:46;;;;;;;10.30;7.30;;;;;;;23.72;50.68;99371.76;25021;1313;3058671;-64
2022/07/05 01:42:15;;;;;;;8.90;6.50;;;;;;;23.69;50.74;99370.85;25171;1313;3026850;-63
2022/07/05 01:44:44;;;;;;;12.00;6.60;;;;;;;23.69;50.60;99371.04;25097;1313;3054223;-61
2022/07/05 01:47:13;;;;;;;12.20;7.20;;;;;;;23.68;50.63;99373.63;25074;1316;3028302;-63
2022/07/05 01:49:44;;;;;;;15.60;7.10;;;;;;;23.66;50.74;99373.92;25086;1313;3053304;-63
2022/07/05 01:52:13;;;;;;;11.90;7.20;;;;;;;23.64;51.05;99373.23;25119;1315;3026887;-63
2022/07/05 01:55:07;;;;;;;11.50;7.60;;;;;;;23.59;51.25;99368.31;25084;1316;3056112;-64
2022/07/05 01:57:36;;;;;;;10.10;6.60;;;;;;;23.56;51.26;99373.86;25153;1313;3026532;-62
2022/07/05 02:00:10;;;;;;;16.20;7.90;;;;;;;23.54;51.31;99373.41;25087;1316;3027119;-63
2022/07/05 02:02:42;;;;;;;11.00;6.90;;;;;;;23.50;51.54;99377.28;25055;1316;3026769;-65
2022/07/05 02:05:12;;;;;;;9.10;6.90;;;;;;;23.47;51.66;99376.66;25172;1313;3026180;-64
2022/07/05 02:07:49;;;;;;;12.60;7.20;;;;;;;23.45;51.71;99378.55;25211;1313;3026529;-62
2022/07/05 02:10:19;;;;;;;19.50;7.80;;;;;;;23.41;52.00;99380.58;25104;1313;3052577;-63
2022/07/05 02:12:48;;;;;;;11.30;7.20;;;;;;;23.39;52.05;99378.24;25048;1316;3026370;-63
2022/07/05 02:15:17;;;;;;;12.90;7.30;;;;;;;23.36;52.26;99378.84;25086;1314;3051457;-63
2022/07/05 02:17:47;;;;;;;10.00;7.60;;;;;;;23.35;52.27;99384.65;25059;1316;3026870;-64
2022/07/05 02:20:16;;;;;;;12.20;7.30;;;;;;;23.38;52.23;99383.25;25075;1313;3028617;-63
2022/07/05 02:22:45;;;;;;;13.00;7.20;;;;;;;23.39;52.17;99384.95;25080;1316;3026198;-64
2022/07/05 02:25:14;;;;;;;12.10;7.20;;;;;;;23.42;52.13;99386.04;25017;1314;3051654;-64
2022/07/05 02:27:43;;;;;;;13.10;7.30;;;;;;;23.43;51.95;99386.20;25100;1313;3027608;-66
2022/07/05 02:30:14;;;;;;;16.70;7.50;;;;;;;23.43;52.13;99392.06;25000;1316;3048236;-64
2022/07/05 02:32:44;;;;;;;14.60;7.60;;;;;;;23.43;52.05;99393.70;25085;1316;3026713;-62
2022/07/05 02:35:13;;;;;;;13.30;7.60;;;;;;;23.40;52.15;99392.25;25066;1313;3026320;-63
2022/07/05 02:37:42;;;;;;;14.80;7.30;;;;;;;23.41;52.12;99388.19;25028;1316;3027121;-64
2022/07/05 02:40:13;;;;;;;11.00;8.10;;;;;;;23.34;52.51;99394.27;25094;1316;3026563;-64
2022/07/05 02:42:44;;;;;;;10.90;8.20;;;;;;;23.19;53.41;99391.84;25056;1316;3053257;-63
2022/07/05 02:45:15;;;;;;;11.20;7.70;;;;;;;23.06;53.86;99395.05;25132;1315;3026908;-64
2022/07/05 02:47:51;;;;;;;16.60;7.20;;;;;;;23.04;53.81;99395.65;25070;1316;3050718;-62
2022/07/05 02:50:21;;;;;;;12.70;7.70;;;;;;;23.05;53.74;99395.89;25088;1316;3026601;-65
2022/07/05 02:53:16;;;;;;;13.20;7.90;;;;;;;23.05;53.43;99400.91;25069;1316;3053561;-63
2022/07/05 02:55:45;;;;;;;11.40;8.50;;;;;;;23.07;53.32;99402.39;25054;1316;3028140;-63
2022/07/05 02:58:16;;;;;;;15.50;8.70;;;;;;;23.14;53.40;99402.63;25128;1316;3055648;-60
2022/07/05 03:00:48;;;;;;;21.40;8.70;;;;;;;23.19;53.25;99399.68;25133;1315;3027680;-62
2022/07/05 03:03:18;;;;;;;18.10;9.80;;;;;;;23.17;53.39;99403.11;25071;1316;3026629;-63
2022/07/05 03:05:47;;;;;;;14.20;8.40;;;;;;;23.16;53.41;99400.94;25122;1316;3026920;-64
2022/07/05 03:08:17;;;;;;;17.20;10.30;;;;;;;23.16;53.71;99401.48;25166;1316;3028720;-61
2022/07/05 03:10:46;;;;;;;15.50;8.20;;;;;;;23.18;53.59;99405.52;25083;1316;3026623;-62
2022/07/05 03:13:18;;;;;;;17.50;9.20;;;;;;;23.19;53.68;99403.10;25055;1315;3026862;-63
2022/07/05 03:15:47;;;;;;;12.50;8.50;;;;;;;23.21;53.93;99400.68;25126;1316;3026855;-65
2022/07/05 03:18:18;;;;;;;14.70;8.90;;;;;;;23.23;53.74;99400.80;25071;1315;3026884;-65
2022/07/05 03:20:47;;;;;;;14.50;8.50;;;;;;;23.27;53.64;99396.59;25082;1313;3026506;-61
2022/07/05 03:23:20;;;;;;;18.40;8.80;;;;;;;23.30;53.63;99399.72;25118;1316;3026920;-63
2022/07/05 03:25:54;;;;;;;16.50;9.10;;;;;;;23.29;53.58;99398.22;25080;1316;3052631;-63
2022/07/05 03:28:23;;;;;;;16.20;8.80;;;;;;;23.29;53.96;99402.80;25131;1316;3026516;-63
2022/07/05 03:30:54;;;;;;;19.90;9.00;;;;;;;23.34;53.96;99406.76;25063;1316;3026265;-63
2022/07/05 03:33:27;;;;;;;15.00;8.60;;;;;;;23.36;53.80;99407.98;25131;1316;3029506;-63
2022/07/05 03:35:57;;;;;;;14.30;9.30;;;;;;;23.37;54.01;99409.30;25079;1316;3027445;-64
2022/07/05 03:38:27;;;;;;;16.70;9.10;;;;;;;23.35;54.29;99408.40;25065;1315;3028592;-64
2022/07/05 03:40:56;;;;;;;14.70;9.10;;;;;;;23.34;54.24;99416.62;25089;1316;3058499;-63
2022/07/05 03:43:25;;;;;;;15.50;9.50;;;;;;;23.38;54.47;99413.24;25191;1316;3026429;-64
2022/07/05 03:45:55;;;;;;;19.60;9.70;;;;;;;23.40;54.47;99412.66;25111;1315;3026283;-63
2022/07/05 03:48:25;;;;;;;19.00;10.20;;;;;;;23.46;53.94;99409.88;25101;1316;3054405;-64
2022/07/05 03:50:54;;;;;;;17.70;9.20;;;;;;;23.49;54.17;99410.23;25053;1316;3028297;-64
2022/07/05 03:53:24;;;;;;;19.80;10.40;;;;;;;23.55;54.07;99413.99;25035;1316;3054494;-65
2022/07/05 03:55:54;;;;;;;21.70;10.50;;;;;;;23.58;53.92;99415.78;25058;1315;3026927;-63
2022/07/05 03:58:23;;;;;;;25.00;13.20;;;;;;;23.60;53.88;99409.83;25098;1315;3026646;-61
2022/07/05 04:00:54;;;;;;;35.00;15.90;;;;;;;23.67;53.91;99411.36;25056;1315;3028358;-63
2022/07/05 04:03:24;;;;;;;24.40;14.60;;;;;;;23.70;53.80;99404.20;25070;1316;3026833;-63
2022/07/05 04:05:54;;;;;;;33.30;16.50;;;;;;;23.78;53.75;99405.77;25066;1316;3027009;-64
2022/07/05 04:08:23;;;;;;;34.30;15.80;;;;;;;23.89;53.28;99403.18;25167;1316;3026542;-64
2022/07/05 04:10:52;;;;;;;32.70;17.10;;;;;;;23.96;53.26;99403.63;25038;1316;3026649;-64
2022/07/05 04:13:22;;;;;;;30.00;17.90;;;;;;;24.04;53.19;99401.81;25027;1315;3071035;-63
2022/07/05 04:15:53;;;;;;;28.90;16.20;;;;;;;24.14;52.85;99398.53;24995;1315;3026544;-64
2022/07/05 04:18:23;;;;;;;37.30;17.70;;;;;;;24.24;52.56;99398.64;25079;1316;3026533;-64
2022/07/05 04:20:52;;;;;;;33.30;17.30;;;;;;;24.32;52.41;99399.30;25076;1316;3026224;-63
2022/07/05 04:23:22;;;;;;;30.40;16.50;;;;;;;24.42;51.87;99399.12;24994;1315;3026969;-64
2022/07/05 04:25:51;;;;;;;26.60;16.20;;;;;;;24.52;51.71;99404.41;25057;1315;3027057;-61
2022/07/05 04:28:31;;;;;;;32.60;15.30;;;;;;;24.61;51.39;99408.67;25120;1316;3056078;-64
2022/07/05 04:31:02;;;;;;;26.60;13.90;;;;;;;24.69;51.21;99408.48;25079;1316;3026565;-63
2022/07/05 04:33:33;;;;;;;25.60;13.10;;;;;;;24.73;51.21;99411.21;25067;1316;3026863;-64
2022/07/05 04:36:04;;;;;;;23.50;13.20;;;;;;;24.82;51.15;99410.88;25104;1316;3028678;-63
2022/07/05 04:38:34;;;;;;;23.70;13.90;;;;;;;24.89;51.30;99410.67;25099;1315;3026383;-61
2022/07/05 04:41:04;;;;;;;30.80;13.60;;;;;;;24.96;51.15;99410.68;25180;1316;3026694;-63
2022/07/05 04:43:34;;;;;;;27.50;11.70;;;;;;;25.05;50.72;99412.83;25335;1316;3028268;-62
2022/07/05 04:46:04;;;;;;;22.90;12.10;;;;;;;25.14;50.36;99409.98;25342;1316;3028874;-64
2022/07/05 04:48:33;;;;;;;19.80;10.50;;;;;;;25.20;49.82;99412.65;25242;1316;3026428;-62
2022/07/05 04:51:03;;;;;;;20.60;12.40;;;;;;;25.28;49.61;99413.65;25116;1316;3058514;-63
2022/07/05 04:53:34;;;;;;;25.60;12.10;;;;;;;25.37;49.53;99412.88;25116;1315;3026922;-64
2022/07/05 04:56:05;;;;;;;25.50;12.60;;;;;;;25.46;49.56;99414.69;25083;1316;3026287;-62
2022/07/05 04:58:34;;;;;;;27.10;12.20;;;;;;;25.54;49.33;99413.83;25064;1315;3056025;-64
2022/07/05 05:01:04;;;;;;;30.90;12.00;;;;;;;25.62;49.21;99419.81;25043;1315;3028608;-62
2022/07/05 05:03:35;;;;;;;18.30;12.40;;;;;;;25.71;49.00;99417.99;25143;1316;3030116;-65
2022/07/05 05:06:04;;;;;;;18.80;12.00;;;;;;;25.79;48.56;99423.98;25051;1315;3026660;-62
2022/07/05 05:08:34;;;;;;;19.50;11.80;;;;;;;25.86;48.51;99424.55;25046;1316;3051618;-64
2022/07/05 05:11:05;;;;;;;21.70;11.80;;;;;;;25.93;48.39;99424.02;25101;1314;3026782;-66
2022/07/05 05:13:34;;;;;;;22.70;13.00;;;;;;;26.00;48.71;99420.48;25149;1316;3055266;-65
2022/07/05 05:16:04;;;;;;;24.90;12.20;;;;;;;26.07;48.63;99425.13;25086;1316;3027867;-65
2022/07/05 05:18:34;;;;;;;21.60;11.40;;;;;;;26.15;48.55;99422.98;25111;1316;3026819;-64
2022/07/05 05:21:04;;;;;;;29.20;11.60;;;;;;;26.25;48.34;99420.45;25101;1314;3026587;-61
2022/07/05 05:23:33;;;;;;;18.60;11.70;;;;;;;26.36;48.42;99421.35;25052;1315;3051978;-64
2022/07/05 05:26:02;;;;;;;24.10;11.70;;;;;;;26.44;48.35;99421.39;25107;1316;3026652;-65
2022/07/05 05:28:31;;;;;;;22.60;11.40;;;;;;;26.53;48.26;99419.13;25100;1313;3058752;-65
2022/07/05 05:31:00;;;;;;;26.10;11.10;;;;;;;26.62;47.85;99419.21;25060;1315;3026570;-64
2022/07/05 05:33:29;;;;;;;17.90;10.40;;;;;;;26.71;47.74;99421.87;25086;1316;3054594;-63
2022/07/05 05:35:58;;;;;;;19.00;11.20;;;;;;;26.80;47.45;99418.97;25045;1316;3026578;-64
2022/07/05 05:38:28;;;;;;;18.60;10.10;;;;;;;26.88;46.99;99418.51;25062;1313;3053821;-65
2022/07/05 05:40:57;;;;;;;18.90;10.00;;;;;;;26.94;46.83;99414.22;25090;1316;3026549;-61
2022/07/05 05:43:26;;;;;;;16.00;9.20;;;;;;;27.01;46.65;99414.09;25039;1316;3048179;-63
2022/07/05 05:45:55;;;;;;;18.20;9.60;;;;;;;27.11;46.25;99415.98;25062;1316;3026770;-65
2022/07/05 05:48:24;;;;;;;17.50;9.70;;;;;;;27.20;45.51;99421.86;25074;1313;3067804;-66
2022/07/05 05:50:52;;;;;;;17.00;9.10;;;;;;;27.27;45.00;99420.93;25081;1316;3029207;-64
2022/07/05 05:53:21;;;;;;;15.80;8.90;;;;;;;27.36;44.68;99420.47;25107;1316;3053080;-64
2022/07/05 05:55:51;;;;;;;20.00;8.90;;;;;;;27.45;43.95;99424.32;25035;1313;3026568;-63
2022/07/05 05:58:20;;;;;;;15.90;9.10;;;;;;;27.53;43.71;99420.23;25086;1316;3055920;-65
2022/07/05 06:00:52;;;;;;;23.40;9.50;;;;;;;27.62;43.48;99425.80;25185;1313;3026335;-64
2022/07/05 06:03:22;;;;;;;15.90;8.90;;;;;;;27.71;43.06;99420.75;25036;1313;3028652;-65
2022/07/05 06:05:51;;;;;;;15.90;8.70;;;;;;;27.75;42.80;99421.25;25139;1313;3028303;-66
2022/07/05 06:08:23;;;;;;;25.10;9.60;;;;;;;27.76;42.86;99418.88;25107;1313;3026984;-64
2022/07/05 06:10:52;;;;;;;21.00;9.30;;;;;;;27.85;42.88;99417.77;25062;1313;3026632;-65
2022/07/05 06:13:21;;;;;;;21.00;11.20;;;;;;;27.94;42.70;99418.27;25077;1316;3050613;-63
2022/07/05 06:15:54;;;;;;;21.90;8.50;;;;;;;28.02;42.65;99419.13;25079;1313;3026652;-64
2022/07/05 06:18:23;;;;;;;19.70;8.60;;;;;;;28.06;41.11;99414.39;25095;1313;3026420;-62
2022/07/05 06:20:52;;;;;;;23.10;9.00;;;;;;;28.08;40.89;99415.17;25040;1313;3047527;-65
2022/07/05 06:23:21;;;;;;;16.20;7.80;;;;;;;28.16;41.10;99413.13;25102;1313;3026179;-64
2022/07/05 06:25:51;;;;;;;25.50;8.80;;;;;;;28.23;40.64;99409.46;25071;1313;3070262;-66
2022/07/05 06:28:20;;;;;;;15.90;8.70;;;;;;;28.29;40.49;99413.67;25061;1313;3028984;-65
2022/07/05 06:30:52;;;;;;;20.80;10.00;;;;;;;28.33;40.09;99409.70;25080;1313;3053425;-65
2022/07/05 06:33:21;;;;;;;19.10;9.70;;;;;;;28.39;40.42;99407.73;25051;1313;3026978;-67
2022/07/05 06:35:51;;;;;;;24.70;10.90;;;;;;;28.46;39.81;99404.85;25074;1313;3026962;-64
2022/07/05 06:38:20;;;;;;;23.80;10.10;;;;;;;28.51;39.51;99408.63;25102;1313;3026621;-63
2022/07/05 06:40:49;;;;;;;21.50;10.70;;;;;;;28.61;38.89;99406.75;25110;1315;3070975;-63
2022/07/05 06:43:18;;;;;;;22.20;11.80;;;;;;;28.67;38.95;99405.03;25064;1313;3028130;-63
2022/07/05 06:46:04;;;;;;;30.80;15.40;;;;;;;28.75;39.22;99406.87;25045;1310;3055389;-64
2022/07/05 06:48:35;;;;;;;36.80;15.80;;;;;;;28.77;39.65;99401.63;25056;1313;3026763;-63
2022/07/05 06:51:04;;;;;;;31.70;16.80;;;;;;;28.84;39.57;99398.56;25065;1313;3026787;-65
2022/07/05 06:53:33;;;;;;;38.00;16.70;;;;;;;28.88;39.68;99398.96;25136;1315;3030112;-63
2022/07/05 06:56:02;;;;;;;33.00;15.80;;;;;;;28.99;39.64;99397.50;25046;1313;3071122;-63
2022/07/05 06:58:32;;;;;;;28.90;16.30;;;;;;;29.06;39.77;99391.34;25077;1313;3029484;-63
2022/07/05 07:01:01;;;;;;;36.20;16.80;;;;;;;29.13;39.57;99393.92;25116;1313;3026871;-61
2022/07/05 07:03:31;;;;;;;31.10;16.30;;;;;;;29.15;39.18;99392.75;25040;1313;3026895;-64
2022/07/05 07:06:00;;;;;;;32.20;16.70;;;;;;;29.26;38.99;99393.95;25067;1313;3027719;-62
2022/07/05 07:11:18;;;;;;;18.90;13.80;;;;;;;29.47;38.56;99386.67;25070;1313;3055118;-62
2022/07/05 07:13:49;;;;;;;25.00;13.50;;;;;;;29.52;38.17;99387.02;25066;1313;3026098;-63
2022/07/05 07:16:18;;;;;;;22.80;12.20;;;;;;;29.65;37.77;99384.00;25037;1313;3030071;-64
2022/07/05 07:18:48;;;;;;;21.30;11.60;;;;;;;29.76;37.18;99384.42;25057;1313;3027323;-61
2022/07/05 07:21:17;;;;;;;14.60;8.70;;;;;;;29.87;37.05;99387.68;25059;1312;3028032;-63
2022/07/05 07:23:46;;;;;;;13.80;7.40;;;;;;;29.96;35.99;99391.77;25092;1313;3052126;-60
2022/07/05 07:26:14;;;;;;;12.00;7.50;;;;;;;30.05;35.71;99393.45;25032;1313;3026430;-61
2022/07/05 07:28:44;;;;;;;13.40;7.80;;;;;;;30.10;35.67;99395.35;25114;1313;3058009;-63
2022/07/05 07:31:13;;;;;;;16.40;8.80;;;;;;;30.18;36.31;99397.52;25049;1313;3026419;-65
2022/07/05 07:33:42;;;;;;;14.80;7.60;;;;;;;30.23;36.67;99395.52;25077;1313;3054840;-64
2022/07/05 07:36:11;;;;;;;13.40;7.80;;;;;;;30.28;37.11;99399.98;25052;1313;3026830;-62
2022/07/05 07:38:40;;;;;;;14.40;6.00;;;;;;;30.32;37.28;99403.23;25123;1313;3051890;-65
2022/07/05 07:41:09;;;;;;;10.60;6.40;;;;;;;30.22;35.43;99398.66;25100;1313;3026243;-65
2022/07/05 07:43:39;;;;;;;8.20;5.60;;;;;;;30.22;33.81;99398.35;25149;1315;3026559;-62
2022/07/05 07:46:08;;;;;;;8.50;4.60;;;;;;;30.35;34.01;99397.45;25061;1314;3026394;-64
2022/07/05 07:48:37;;;;;;;9.60;5.00;;;;;;;30.44;33.54;99399.48;25073;1315;3053266;-62
2022/07/05 07:51:06;;;;;;;9.50;6.20;;;;;;;30.51;33.20;99396.02;25088;1313;3026573;-62
2022/07/05 07:53:35;;;;;;;10.50;5.20;;;;;;;30.47;33.10;99403.59;25157;1313;3054111;-61
2022/07/05 07:56:05;;;;;;;14.40;5.00;;;;;;;30.48;33.37;99402.21;25050;1313;3026554;-64
2022/07/05 07:58:33;;;;;;;7.30;5.40;;;;;;;30.51;33.35;99401.64;25106;1313;3048872;-61
2022/07/05 08:01:04;;;;;;;8.40;5.10;;;;;;;30.50;33.30;99403.69;25095;1313;3026116;-64
2022/07/05 08:03:33;;;;;;;8.00;5.00;;;;;;;30.60;33.09;99397.86;25088;1313;3026121;-67
2022/07/05 08:06:02;;;;;;;9.80;5.00;;;;;;;30.68;32.89;99396.16;25061;1312;3026371;-66
2022/07/05 08:08:31;;;;;;;12.20;5.50;;;;;;;30.72;32.76;99394.50;25145;1313;3052036;-64
2022/07/05 08:11:00;;;;;;;9.50;4.70;;;;;;;30.59;32.98;99396.13;25072;1313;3026885;-63
2022/07/05 08:13:30;;;;;;;7.90;5.70;;;;;;;30.53;33.51;99391.31;25067;1313;3049164;-58
2022/07/05 08:16:00;;;;;;;6.00;5.30;;;;;;;30.54;33.28;99389.10;25108;1313;3026323;-63
2022/07/05 08:21:32;;;;;;;7.30;4.70;;;;;;;30.52;33.54;99382.86;25065;1316;3051423;-62
2022/07/05 08:24:12;;;;;;;10.60;5.40;;;;;;;30.67;33.40;99380.44;25141;1313;3053980;-63
2022/07/05 08:26:41;;;;;;;7.60;5.00;;;;;;;30.81;32.94;99380.71;25072;1316;3052880;-63
2022/07/05 08:29:11;;;;;;;7.60;5.10;;;;;;;30.79;33.04;99379.95;25045;1313;3027598;-63
2022/07/05 08:31:43;;;;;;;9.00;5.60;;;;;;;30.72;33.45;99381.71;25126;1313;3052688;-61
2022/07/05 08:34:12;;;;;;;10.60;5.50;;;;;;;30.76;33.54;99378.84;25128;1313;3026480;-63
2022/07/05 08:36:43;;;;;;;12.50;4.90;;;;;;;30.96;33.45;99379.66;25138;1313;3028793;-63
2022/07/05 08:39:13;;;;;;;8.40;5.00;;;;;;;31.05;32.99;99376.41;25104;1313;3026720;-62
2022/07/05 08:41:49;;;;;;;8.50;5.20;;;;;;;31.16;32.86;99379.20;25107;1313;3054275;-62
2022/07/05 08:44:19;;;;;;;6.80;4.90;;;;;;;31.22;31.81;99382.61;25044;1313;3056664;-64
2022/07/05 08:46:51;;;;;;;8.70;4.80;;;;;;;31.27;31.77;99384.00;25021;1313;3026535;-63
2022/07/05 08:49:45;;;;;;;10.70;5.70;;;;;;;31.39;32.26;99379.42;25082;1313;3053276;-63
2022/07/05 08:52:14;;;;;;;10.00;5.20;;;;;;;31.43;31.64;99380.05;25027;1315;3026918;-62
2022/07/05 08:54:46;;;;;;;9.80;5.20;;;;;;;31.48;31.55;99379.91;25076;1315;3049538;-64
2022/07/05 08:57:15;;;;;;;7.60;5.60;;;;;;;31.45;31.46;99380.10;25030;1315;3026305;-65
2022/07/05 08:59:44;;;;;;;11.70;5.50;;;;;;;31.43;31.57;99377.47;25066;1313;3026150;-64
2022/07/05 09:02:15;;;;;;;12.10;5.40;;;;;;;31.49;31.84;99378.76;25090;1313;3026578;-62
2022/07/05 09:04:45;;;;;;;9.30;6.00;;;;;;;31.78;31.77;99373.84;25095;1316;3053611;-63
2022/07/05 09:07:16;;;;;;;8.60;5.10;;;;;;;31.97;31.11;99375.63;25045;1315;3028021;-62
2022/07/05 09:09:47;;;;;;;9.50;5.10;;;;;;;31.91;30.38;99373.66;25127;1313;3026104;-63
2022/07/05 09:12:18;;;;;;;10.20;4.60;;;;;;;32.08;30.12;99375.46;25134;1313;3026453;-64
2022/07/05 09:14:52;;;;;;;7.00;5.20;;;;;;;32.13;29.56;99374.38;25103;1313;3027483;-64
2022/07/05 09:17:21;;;;;;;7.80;4.60;;;;;;;32.20;29.41;99372.17;25059;1313;3026937;-62
2022/07/05 09:20:04;;;;;;;6.10;4.60;;;;;;;32.39;29.55;99371.75;25053;1313;3030594;-62
2022/07/05 09:22:52;;;;;;;9.60;4.80;;;;;;;32.53;29.74;99367.87;25122;1313;3052921;-64
2022/07/05 09:25:23;;;;;;;10.90;5.20;;;;;;;32.72;30.04;99364.89;25089;1313;3055182;-62
2022/07/05 09:28:00;;;;;;;12.90;5.40;;;;;;;32.84;30.31;99364.01;25065;1313;3029246;-63
2022/07/05 09:30:29;;;;;;;9.50;5.30;;;;;;;32.84;30.59;99359.30;25044;1313;3051890;-63
2022/07/05 09:33:04;;;;;;;7.90;4.70;;;;;;;33.00;29.95;99358.88;25087;1313;3026120;-63
2022/07/05 09:35:40;;;;;;;7.80;4.70;;;;;;;32.81;28.32;99356.81;25136;1316;3052533;-62
2022/07/05 09:38:20;;;;;;;6.90;4.40;;;;;;;32.82;28.47;99360.15;25093;1313;3069314;-64
2022/07/05 09:40:51;;;;;;;11.60;4.30;;;;;;;32.87;27.94;99355.23;25111;1313;3050193;-62
2022/07/05 09:43:24;;;;;;;6.60;4.30;;;;;;;32.92;28.10;99354.41;25096;1313;3026658;-63
2022/07/05 09:45:54;;;;;;;6.80;4.20;;;;;;;32.98;27.57;99359.98;25120;1313;3051812;-63
2022/07/05 09:48:23;;;;;;;7.00;4.90;;;;;;;32.94;27.54;99356.96;25050;1313;3026532;-62
2022/07/05 09:50:53;;;;;;;9.90;5.10;;;;;;;32.66;28.55;99355.02;25024;1316;3053782;-64
2022/07/05 09:53:22;;;;;;;7.80;5.30;;;;;;;32.54;29.09;99355.39;25020;1313;3026700;-65
2022/07/05 09:56:03;;;;;;;9.80;4.90;;;;;;;32.72;29.10;99346.30;25049;1313;3026522;-62
2022/07/05 09:58:32;;;;;;;9.70;4.60;;;;;;;32.84;29.66;99350.45;25081;1313;3054781;-63
2022/07/05 10:01:02;;;;;;;7.40;4.40;;;;;;;32.85;29.35;99350.58;25081;1313;3027023;-64
2022/07/05 10:03:32;;;;;;;5.80;4.30;;;;;;;32.92;29.50;99355.88;25061;1316;3048960;-63
2022/07/05 10:06:12;;;;;;;12.80;4.50;;;;;;;32.82;29.50;99351.98;25020;1316;3029716;-64
2022/07/05 10:08:41;;;;;;;6.40;4.50;;;;;;;32.66;29.44;99346.18;25104;1315;3055603;-65
2022/07/05 10:11:10;;;;;;;8.30;4.10;;;;;;;32.61;29.48;99350.80;25057;1313;3026522;-64
2022/07/05 10:13:39;;;;;;;7.20;4.10;;;;;;;32.53;29.08;99347.09;25092;1313;3026419;-64
2022/07/05 10:16:08;;;;;;;5.40;4.00;;;;;;;32.51;28.84;99348.38;25088;1313;3053770;-62
2022/07/05 10:18:38;;;;;;;6.90;4.50;;;;;;;32.50;29.24;99350.08;25046;1316;3028309;-63
2022/07/05 10:21:12;;;;;;;11.10;4.50;;;;;;;32.60;28.94;99349.69;25066;1316;3026468;-63
2022/07/05 10:23:46;;;;;;;8.40;4.50;;;;;;;32.87;28.18;99346.39;25061;1315;3055409;-64
2022/07/05 10:26:15;;;;;;;7.30;3.90;;;;;;;33.08;27.99;99343.63;25098;1313;3057116;-64
2022/07/05 10:28:49;;;;;;;10.60;4.90;;;;;;;33.26;28.34;99336.38;25084;1313;3026219;-61
2022/07/05 10:31:18;;;;;;;5.30;4.40;;;;;;;33.37;28.51;99337.79;25046;1313;3026855;-64
2022/07/05 10:33:47;;;;;;;8.70;3.80;;;;;;;33.43;27.38;99328.22;25131;1313;3027128;-64
2022/07/05 10:36:16;;;;;;;9.90;4.20;;;;;;;33.47;26.01;99330.00;25072;1313;3052152;-63
2022/07/05 10:38:45;;;;;;;8.60;4.40;;;;;;;33.57;26.03;99330.22;25146;1313;3026843;-60
2022/07/05 10:41:18;;;;;;;7.10;4.30;;;;;;;33.71;26.11;99331.34;25092;1313;3059058;-60
2022/07/05 10:43:54;;;;;;;6.10;4.40;;;;;;;33.87;26.37;99333.02;25111;1313;3027005;-64
2022/07/05 10:46:36;;;;;;;10.90;4.50;;;;;;;34.07;26.57;99332.06;25129;1313;3051965;-64
2022/07/05 10:49:16;;;;;;;14.80;5.00;;;;;;;34.27;26.66;99332.11;25122;1315;3051365;-65
2022/07/05 10:51:45;;;;;;;5.00;4.40;;;;;;;34.32;26.31;99332.46;25072;1313;3070984;-62
2022/07/05 10:54:14;;;;;;;7.40;5.20;;;;;;;34.47;26.54;99327.16;25081;1313;3026637;-63
2022/07/05 10:57:26;;;;;;;14.40;8.70;;;;;;;34.49;26.80;99329.57;25097;1313;3027126;-61
2022/07/05 11:00:12;;;;;;;7.50;5.30;;;;;;;34.57;25.38;99326.23;25104;1313;3069788;-64
2022/07/05 11:02:41;;;;;;;9.10;4.90;;;;;;;34.65;25.30;99325.83;25145;1313;3052060;-64
2022/07/05 11:05:10;;;;;;;8.80;4.60;;;;;;;34.76;26.31;99319.52;25058;1313;3026505;-65
2022/07/05 11:07:58;;;;;;;10.80;4.90;;;;;;;34.86;26.70;99319.53;24986;1316;3070575;-62
2022/07/05 11:10:27;;;;;;;7.40;4.30;;;;;;;35.01;26.92;99318.44;25084;1313;3051247;-65
2022/07/05 11:12:56;;;;;;;9.10;4.40;;;;;;;34.96;26.12;99315.21;25071;1313;3026756;-64
2022/07/05 11:15:25;;;;;;;9.90;4.30;;;;;;;34.68;26.69;99317.25;25077;1313;3070456;-65
2022/07/05 11:18:14;;;;;;;7.30;4.20;;;;;;;34.42;26.37;99320.20;25152;1313;3026837;-63
2022/07/05 11:20:44;;;;;;;5.80;3.80;;;;;;;34.11;25.85;99314.24;25135;1313;3051560;-65
2022/07/05 11:23:13;;;;;;;5.60;4.10;;;;;;;34.02;26.24;99319.56;25026;1313;3026650;-64
2022/07/05 11:25:48;;;;;;;7.80;4.00;;;;;;;33.88;26.40;99318.18;25112;1313;3054594;-65
2022/07/05 11:28:21;;;;;;;7.90;4.00;;;;;;;33.81;26.43;99314.08;25142;1313;3051497;-64
2022/07/05 11:30:55;;;;;;;6.00;3.50;;;;;;;33.74;26.07;99314.23;25091;1313;3026302;-63
2022/07/05 11:33:28;;;;;;;8.80;4.60;;;;;;;34.04;25.29;99316.48;25098;1316;3049545;-65